createdAt,value
2019-01-29T00:00:49.711Z,-1.90
2019-01-29T00:03:52.261Z,-2.00
2019-01-29T00:06:54.793Z,-2.10
2019-01-29T00:09:57.401Z,-2.20
2019-01-29T00:13:00.007Z,-2.20
2019-01-29T00:16:03.402Z,-2.30
2019-01-29T00:19:06.031Z,-2.30
2019-01-29T00:22:08.565Z,-2.30
2019-01-29T00:25:11.367Z,-2.30
2019-01-29T00:28:14.065Z,-2.30
2019-01-29T00:31:16.614Z,-2.40
2019-01-29T00:34:19.389Z,-2.40
2019-01-29T00:37:22.596Z,-2.50
2019-01-29T00:40:25.164Z,-2.50
2019-01-29T00:43:27.832Z,-2.50
2019-01-29T00:46:30.534Z,-2.50
2019-01-29T00:49:33.213Z,-2.50
2019-01-29T00:52:41.853Z,-2.60
2019-01-29T00:55:40.350Z,-2.70
2019-01-29T00:58:43.133Z,-2.80
2019-01-29T01:01:46.804Z,-2.90
2019-01-29T01:04:50.387Z,-3.00
2019-01-29T01:07:53.074Z,-3.10
2019-01-29T01:10:55.745Z,-3.20
2019-01-29T01:13:58.421Z,-3.30
2019-01-29T01:17:01.092Z,-3.30
2019-01-29T01:20:05.609Z,-3.40
2019-01-29T01:23:08.260Z,-3.40
2019-01-29T01:26:10.780Z,-3.40
2019-01-29T01:29:13.407Z,-3.40
2019-01-29T01:32:16.024Z,-3.40
2019-01-29T01:35:18.569Z,-3.30
2019-01-29T01:38:21.224Z,-3.30
2019-01-29T01:41:23.854Z,-3.30
2019-01-29T01:44:26.373Z,-3.20
2019-01-29T01:47:29.043Z,-3.20
2019-01-29T01:50:31.659Z,-3.20
2019-01-29T01:53:34.155Z,-3.20
2019-01-29T01:56:36.727Z,-3.10
2019-01-29T01:59:39.354Z,-3.10
2019-01-29T02:02:42.090Z,-3.00
2019-01-29T02:05:44.676Z,-3.00
2019-01-29T02:08:47.187Z,-3.00
2019-01-29T02:11:49.832Z,-3.10
2019-01-29T02:14:52.512Z,-3.00
2019-01-29T02:17:55.039Z,-3.10
2019-01-29T02:20:57.601Z,-3.20
2019-01-29T02:24:00.222Z,-3.20
2019-01-29T02:27:02.838Z,-3.30
2019-01-29T02:30:08.985Z,-3.40
2019-01-29T02:33:11.582Z,-3.50
2019-01-29T02:36:14.304Z,-3.60
2019-01-29T02:39:16.896Z,-3.70
2019-01-29T02:42:19.592Z,-3.80
2019-01-29T02:45:22.883Z,-3.90
2019-01-29T02:48:26.828Z,-3.90
2019-01-29T02:51:29.439Z,-4.00
2019-01-29T02:54:32.055Z,-4.00
2019-01-29T02:57:34.685Z,-4.10
2019-01-29T03:00:37.268Z,-4.10
2019-01-29T03:03:40.778Z,-4.10
2019-01-29T03:06:43.508Z,-4.10
2019-01-29T03:09:46.363Z,-4.20
2019-01-29T03:12:49.116Z,-4.30
2019-01-29T03:15:51.755Z,-4.40
2019-01-29T03:18:54.422Z,-4.40
2019-01-29T03:21:56.984Z,-4.50
2019-01-29T03:24:59.592Z,-4.50
2019-01-29T03:28:02.166Z,-4.60
2019-01-29T03:31:05.460Z,-4.60
2019-01-29T03:34:08.069Z,-4.70
2019-01-29T03:37:10.642Z,-4.70
2019-01-29T03:40:16.146Z,-4.70
2019-01-29T03:43:18.856Z,-4.80
2019-01-29T03:46:21.487Z,-4.80
2019-01-29T03:49:23.992Z,-4.80
2019-01-29T03:52:26.579Z,-4.80
2019-01-29T03:55:29.226Z,-4.80
2019-01-29T03:58:31.870Z,-4.80
2019-01-29T04:01:34.543Z,-4.90
2019-01-29T04:04:37.235Z,-4.90
2019-01-29T04:07:40.824Z,-4.90
2019-01-29T04:10:43.546Z,-5.00
2019-01-29T04:13:46.221Z,-5.00
2019-01-29T04:16:48.815Z,-5.00
2019-01-29T04:19:51.481Z,-5.00
2019-01-29T04:22:54.167Z,-5.00
2019-01-29T04:25:56.803Z,-5.00
2019-01-29T04:28:59.569Z,-5.10
2019-01-29T04:32:02.204Z,-5.10
2019-01-29T04:35:05.364Z,-5.20
2019-01-29T04:38:07.892Z,-5.20
2019-01-29T04:41:10.498Z,-5.30
2019-01-29T04:44:13.183Z,-5.30
2019-01-29T04:47:15.827Z,-5.30
2019-01-29T04:50:21.259Z,-5.30
2019-01-29T04:53:24.008Z,-5.30
2019-01-29T04:56:26.674Z,-5.40
2019-01-29T04:59:29.406Z,-5.40
2019-01-29T05:02:32.049Z,-5.40
2019-01-29T05:05:34.765Z,-5.40
2019-01-29T05:08:37.364Z,-5.40
2019-01-29T05:11:39.935Z,-5.40
2019-01-29T05:14:42.464Z,-5.40
2019-01-29T05:17:45.178Z,-5.40
2019-01-29T05:20:47.800Z,-5.50
2019-01-29T05:23:50.522Z,-5.50
2019-01-29T05:26:53.060Z,-5.50
2019-01-29T05:29:56.988Z,-5.50
2019-01-29T05:32:59.588Z,-5.50
2019-01-29T05:36:02.182Z,-5.50
2019-01-29T05:39:07.854Z,-5.50
2019-01-29T05:42:10.437Z,-5.50
2019-01-29T05:45:14.873Z,-5.60
2019-01-29T05:48:18.393Z,-5.60
2019-01-29T05:51:20.906Z,-5.60
2019-01-29T05:54:23.592Z,-5.60
2019-01-29T05:57:26.148Z,-5.60
2019-01-29T06:00:38.633Z,-5.50
2019-01-29T06:03:41.293Z,-5.50
2019-01-29T06:06:43.869Z,-5.40
2019-01-29T06:09:46.547Z,-5.40
2019-01-29T06:12:49.255Z,-5.30
2019-01-29T06:15:51.828Z,-5.30
2019-01-29T06:18:54.485Z,-5.30
2019-01-29T06:21:57.247Z,-5.30
2019-01-29T06:24:59.969Z,-5.40
2019-01-29T06:28:02.571Z,-5.40
2019-01-29T06:31:05.214Z,-5.40
2019-01-29T06:34:07.867Z,-5.40
2019-01-29T06:37:10.611Z,-5.30
2019-01-29T06:40:16.043Z,-5.40
2019-01-29T06:43:18.731Z,-5.40
2019-01-29T06:46:21.417Z,-5.40
2019-01-29T06:49:24.066Z,-5.50
2019-01-29T06:52:26.730Z,-5.50
2019-01-29T06:55:29.352Z,-5.60
2019-01-29T06:58:31.962Z,-5.60
2019-01-29T07:01:34.705Z,-5.60
2019-01-29T07:04:37.308Z,-5.60
2019-01-29T07:07:41.001Z,-5.70
2019-01-29T07:10:44.474Z,-5.80
2019-01-29T07:13:47.153Z,-5.80
2019-01-29T07:17:18.873Z,-5.80
2019-01-29T07:20:21.584Z,-5.90
2019-01-29T07:23:24.187Z,-5.90
2019-01-29T07:26:26.830Z,-6.00
2019-01-29T07:29:29.519Z,-6.00
2019-01-29T07:32:32.244Z,-6.00
2019-01-29T07:35:34.911Z,-6.00
2019-01-29T07:38:37.540Z,-6.10
2019-01-29T07:41:40.354Z,-6.00
2019-01-29T07:44:43.275Z,-6.00
2019-01-29T07:47:46.126Z,-5.90
2019-01-29T07:50:48.698Z,-5.90
2019-01-29T07:53:52.477Z,-5.90
2019-01-29T07:56:55.148Z,-5.80
2019-01-29T07:59:57.741Z,-5.80
2019-01-29T08:03:00.534Z,-5.80
2019-01-29T08:06:04.339Z,-5.70
2019-01-29T08:09:09.382Z,-5.70
2019-01-29T08:12:12.978Z,-5.60
2019-01-29T08:15:16.010Z,-5.60
2019-01-29T08:18:20.467Z,-5.50
2019-01-29T08:21:23.155Z,-5.40
2019-01-29T08:24:27.720Z,-5.40
2019-01-29T08:27:30.447Z,-5.40
2019-01-29T08:30:39.681Z,-5.30
2019-01-29T08:33:42.427Z,-5.20
2019-01-29T08:36:45.133Z,-5.10
2019-01-29T08:39:47.981Z,-5.10
2019-01-29T08:42:50.819Z,-5.00
2019-01-29T08:45:54.329Z,-5.00
2019-01-29T08:48:57.123Z,-4.90
2019-01-29T08:51:59.819Z,-4.80
2019-01-29T08:55:10.466Z,-4.70
2019-01-29T08:58:07.202Z,-4.60
2019-01-29T09:01:09.945Z,-4.60
2019-01-29T09:04:12.649Z,-4.50
2019-01-29T09:07:15.346Z,-4.40
2019-01-29T09:10:18.580Z,-4.30
2019-01-29T09:13:21.244Z,-4.30
2019-01-29T09:16:23.944Z,-4.30
2019-01-29T09:19:26.647Z,-4.20
2019-01-29T09:22:29.434Z,-4.10
2019-01-29T09:25:32.113Z,-4.10
2019-01-29T09:28:34.966Z,-4.00
2019-01-29T09:31:37.642Z,-3.80
2019-01-29T09:34:40.349Z,-3.70
2019-01-29T09:37:43.052Z,-3.70
2019-01-29T09:40:45.751Z,-3.50
2019-01-29T09:43:48.348Z,-3.40
2019-01-29T09:46:51.012Z,-3.30
2019-01-29T09:49:53.756Z,-3.20
2019-01-29T09:52:56.481Z,-3.20
2019-01-29T09:55:59.150Z,-3.10
2019-01-29T09:59:01.908Z,-3.00
2019-01-29T10:02:04.570Z,-2.90
2019-01-29T10:05:07.590Z,-2.80
2019-01-29T10:08:11.376Z,-2.70
2019-01-29T10:11:14.846Z,-2.60
2019-01-29T10:14:29.151Z,-2.60
2019-01-29T10:17:48.190Z,-2.50
2019-01-29T10:20:51.180Z,-2.30
2019-01-29T10:23:53.994Z,-2.10
2019-01-29T10:30:13.182Z,-1.60
2019-01-29T10:33:16.406Z,-1.30
2019-01-29T10:36:19.159Z,-1.00
2019-01-29T10:39:22.019Z,-0.70
2019-01-29T10:42:24.776Z,-0.30
2019-01-29T10:45:31.754Z,-0.10
2019-01-29T10:48:34.406Z,0.10
2019-01-29T10:51:37.154Z,0.20
2019-01-29T10:54:39.751Z,0.40
2019-01-29T10:57:42.651Z,0.60
2019-01-29T11:00:45.266Z,0.70
2019-01-29T11:03:49.093Z,0.70
2019-01-29T11:06:54.817Z,0.70
2019-01-29T11:09:59.504Z,0.80
2019-01-29T11:13:02.211Z,1.10
2019-01-29T11:16:05.000Z,1.20
2019-01-29T11:19:07.901Z,1.40
2019-01-29T11:22:10.594Z,1.60
2019-01-29T11:25:16.937Z,1.80
2019-01-29T11:28:19.655Z,1.90
2019-01-29T11:31:22.346Z,1.80
2019-01-29T11:34:25.030Z,1.90
2019-01-29T11:37:27.769Z,2.00
2019-01-29T11:40:31.036Z,2.10
2019-01-29T11:43:33.727Z,2.20
2019-01-29T11:46:36.303Z,2.20
2019-01-29T11:49:38.961Z,2.20
2019-01-29T11:52:42.829Z,2.20
2019-01-29T11:55:45.524Z,2.30
2019-01-29T11:58:48.212Z,2.10
2019-01-29T12:01:50.988Z,2.10
2019-01-29T12:04:53.730Z,2.30
2019-01-29T12:07:56.560Z,2.70
2019-01-29T12:10:59.382Z,3.30
2019-01-29T12:14:02.657Z,3.80
2019-01-29T12:17:05.400Z,4.20
2019-01-29T12:20:09.450Z,4.40
2019-01-29T12:23:12.154Z,4.50
2019-01-29T12:26:14.775Z,4.60
2019-01-29T12:29:17.456Z,4.80
2019-01-29T12:32:19.995Z,4.80
2019-01-29T12:35:23.788Z,5.00
2019-01-29T12:38:26.716Z,5.00
2019-01-29T12:41:29.346Z,5.00
2019-01-29T12:44:31.992Z,5.30
2019-01-29T12:47:35.054Z,5.50
2019-01-29T12:50:39.728Z,5.60
2019-01-29T12:53:42.641Z,5.50
2019-01-29T12:56:45.322Z,5.70
2019-01-29T12:59:47.971Z,5.80
2019-01-29T13:02:50.561Z,6.10
2019-01-29T13:05:53.195Z,6.50
2019-01-29T13:08:56.998Z,6.50
2019-01-29T13:11:59.602Z,6.60
2019-01-29T13:15:02.962Z,6.40
2019-01-29T13:18:06.706Z,6.50
2019-01-29T13:21:09.446Z,6.50
2019-01-29T13:24:12.110Z,6.60
2019-01-29T13:27:14.771Z,6.70
2019-01-29T13:30:21.852Z,7.00
2019-01-29T13:33:25.962Z,7.10
2019-01-29T13:36:28.715Z,7.10
2019-01-29T13:39:31.332Z,7.10
2019-01-29T13:42:33.936Z,7.20
2019-01-29T13:45:36.959Z,7.20
2019-01-29T13:48:39.834Z,7.00
2019-01-29T13:52:01.109Z,7.00
2019-01-29T13:55:07.135Z,7.10
2019-01-29T13:58:10.034Z,7.10
2019-01-29T14:01:12.703Z,6.90
2019-01-29T14:04:15.788Z,6.80
2019-01-29T14:07:18.646Z,6.90
2019-01-29T14:10:21.561Z,7.00
2019-01-29T14:13:24.562Z,7.00
2019-01-29T14:16:27.422Z,6.90
2019-01-29T14:19:30.037Z,6.80
2019-01-29T14:22:32.720Z,6.80
2019-01-29T14:25:35.287Z,6.80
2019-01-29T14:28:38.751Z,6.70
2019-01-29T14:31:42.152Z,6.70
2019-01-29T14:34:45.081Z,6.40
2019-01-29T14:38:28.807Z,5.40
2019-01-29T14:41:31.910Z,4.10
2019-01-29T14:44:37.559Z,2.70
2019-01-29T14:47:43.947Z,1.90
2019-01-29T14:50:47.472Z,1.20
2019-01-29T14:53:50.838Z,0.60
2019-01-29T14:56:57.032Z,0.30
2019-01-29T14:59:58.631Z,0.00
2019-01-29T15:03:01.251Z,-0.20
2019-01-29T15:06:04.642Z,-0.40
2019-01-29T15:09:11.277Z,-0.70
2019-01-29T15:12:14.465Z,-0.90
2019-01-29T15:15:21.346Z,-1.10
2019-01-29T15:18:30.563Z,-1.30
2019-01-29T15:21:38.190Z,-1.60
2019-01-29T15:24:41.327Z,-1.80
2019-01-29T15:27:44.384Z,-2.00
2019-01-29T15:30:47.616Z,-2.20
2019-01-29T15:33:50.679Z,-2.40
2019-01-29T15:36:53.419Z,-2.60
2019-01-29T15:39:56.121Z,-2.80
2019-01-29T15:42:59.387Z,-2.90
2019-01-29T15:46:02.050Z,-3.00
2019-01-29T15:49:05.175Z,-3.10
2019-01-29T15:52:07.978Z,-3.10
2019-01-29T15:55:11.582Z,-3.20
2019-01-29T15:58:14.428Z,-3.30
2019-01-29T16:01:17.420Z,-3.30
2019-01-29T16:04:20.174Z,-3.40
2019-01-29T16:07:22.812Z,-3.40
2019-01-29T16:10:27.951Z,-3.40
2019-01-29T16:13:30.728Z,-3.40
2019-01-29T16:16:33.473Z,-3.40
2019-01-29T16:19:36.209Z,-3.40
2019-01-29T16:22:38.914Z,-3.50
2019-01-29T16:25:41.590Z,-3.50
2019-01-29T16:28:44.265Z,-3.50
2019-01-29T16:31:46.931Z,-3.60
2019-01-29T16:34:49.640Z,-3.70
2019-01-29T16:37:52.262Z,-3.70
2019-01-29T16:41:00.253Z,-3.80
2019-01-29T16:43:59.490Z,-3.80
2019-01-29T16:47:02.170Z,-3.90
2019-01-29T16:50:05.199Z,-3.90
2019-01-29T16:53:08.039Z,-4.00
2019-01-29T16:56:10.732Z,-4.00
2019-01-29T16:59:13.359Z,-4.00
2019-01-29T17:02:16.247Z,-4.00
2019-01-29T17:05:19.039Z,-4.10
2019-01-29T17:08:21.764Z,-4.10
2019-01-29T17:11:24.485Z,-4.20
2019-01-29T17:14:27.351Z,-4.20
2019-01-29T17:17:30.182Z,-4.20
2019-01-29T17:20:35.459Z,-4.30
2019-01-29T17:23:38.241Z,-4.20
2019-01-29T17:26:40.927Z,-4.30
2019-01-29T17:29:43.925Z,-4.30
2019-01-29T17:32:46.620Z,-4.30
2019-01-29T17:35:49.324Z,-4.30
2019-01-29T17:38:52.090Z,-4.30
2019-01-29T17:41:55.988Z,-4.40
2019-01-29T17:44:58.806Z,-4.40
2019-01-29T17:48:01.529Z,-4.50
2019-01-29T17:51:05.175Z,-4.60
2019-01-29T17:54:07.948Z,-4.60
2019-01-29T17:57:10.868Z,-4.60
2019-01-29T18:00:16.375Z,-4.60
2019-01-29T18:03:19.158Z,-4.60
2019-01-29T18:06:23.002Z,-4.60
2019-01-29T18:09:25.607Z,-4.70
2019-01-29T18:12:28.368Z,-4.70
2019-01-29T18:15:31.270Z,-4.70
2019-01-29T18:18:34.351Z,-4.70
2019-01-29T18:21:37.156Z,-4.70
2019-01-29T18:24:39.937Z,-4.80
2019-01-29T18:27:42.645Z,-4.80
2019-01-29T18:30:45.376Z,-4.80
2019-01-29T18:33:48.203Z,-4.90
2019-01-29T18:36:51.032Z,-4.90
2019-01-29T18:39:53.753Z,-4.90
2019-01-29T18:42:56.368Z,-5.00
2019-01-29T18:45:59.115Z,-5.00
2019-01-29T18:49:01.806Z,-5.10
2019-01-29T18:52:04.828Z,-5.10
2019-01-29T18:55:09.315Z,-5.10
2019-01-29T18:58:13.588Z,-5.10
2019-01-29T19:01:16.469Z,-5.20
2019-01-29T19:04:19.206Z,-5.10
2019-01-29T19:07:22.058Z,-5.10
2019-01-29T19:10:24.889Z,-5.10
2019-01-29T19:13:28.574Z,-5.20
2019-01-29T19:16:31.340Z,-5.20
2019-01-29T19:19:33.952Z,-5.20
2019-01-29T19:22:36.556Z,-5.20
2019-01-29T19:25:39.157Z,-5.20
2019-01-29T19:28:41.873Z,-5.20
2019-01-29T19:31:44.572Z,-5.30
2019-01-29T19:34:47.269Z,-5.30
2019-01-29T19:37:49.875Z,-5.30
2019-01-29T19:40:52.692Z,-5.40
2019-01-29T19:43:55.347Z,-5.40
2019-01-29T19:46:57.979Z,-5.40
2019-01-29T19:50:00.687Z,-5.40
2019-01-29T19:53:03.418Z,-5.40
2019-01-29T19:56:05.989Z,-5.40
2019-01-29T19:59:08.620Z,-5.40
2019-01-29T20:02:12.361Z,-5.40
2019-01-29T20:05:24.709Z,-5.40
2019-01-29T20:08:27.484Z,-5.50
2019-01-29T20:11:30.205Z,-5.50
2019-01-29T20:14:32.826Z,-5.50
2019-01-29T20:17:35.465Z,-5.50
2019-01-29T20:20:39.444Z,-5.60
2019-01-29T20:23:42.258Z,-5.60
2019-01-29T20:26:45.076Z,-5.60
2019-01-29T20:29:47.756Z,-5.60
2019-01-29T20:32:53.422Z,-5.60
2019-01-29T20:35:55.183Z,-5.60
2019-01-29T20:38:57.827Z,-5.60
2019-01-29T20:42:00.455Z,-5.60
2019-01-29T20:45:04.075Z,-5.60
2019-01-29T20:48:06.860Z,-5.60
2019-01-29T20:51:09.475Z,-5.60
2019-01-29T20:54:12.207Z,-5.60
2019-01-29T20:57:14.761Z,-5.50
2019-01-29T21:00:23.279Z,-5.30
2019-01-29T21:03:26.068Z,-5.20
2019-01-29T21:06:28.779Z,-5.00
2019-01-29T21:09:33.285Z,-4.90
2019-01-29T21:12:35.955Z,-4.80
2019-01-29T21:15:38.885Z,-4.70
2019-01-29T21:18:41.769Z,-4.70
2019-01-29T21:21:44.372Z,-4.60
2019-01-29T21:24:47.151Z,-4.60
2019-01-29T21:27:49.809Z,-4.60
2019-01-29T21:30:52.883Z,-4.60
2019-01-29T21:33:55.682Z,-4.50
2019-01-29T21:36:58.330Z,-4.50
2019-01-29T21:40:01.125Z,-4.40
2019-01-29T21:43:03.748Z,-4.40
2019-01-29T21:46:06.356Z,-4.40
2019-01-29T21:49:09.000Z,-4.40
2019-01-29T21:52:11.647Z,-4.40
2019-01-29T21:55:14.467Z,-4.40
2019-01-29T21:58:17.144Z,-4.40
2019-01-29T22:01:19.989Z,-4.40
2019-01-29T22:04:22.646Z,-4.30
2019-01-29T22:07:26.424Z,-4.30
2019-01-29T22:10:29.134Z,-4.30
2019-01-29T22:13:31.885Z,-4.30
2019-01-29T22:16:34.538Z,-4.20
2019-01-29T22:19:37.219Z,-4.20
2019-01-29T22:22:39.812Z,-4.20
2019-01-29T22:25:42.520Z,-4.20
2019-01-29T22:28:45.170Z,-4.20
2019-01-29T22:31:47.784Z,-4.20
2019-01-29T22:34:50.373Z,-4.20
2019-01-29T22:37:52.970Z,-4.30
2019-01-29T22:40:55.628Z,-4.30
2019-01-29T22:43:58.228Z,-4.40
2019-01-29T22:47:00.849Z,-4.50
2019-01-29T22:50:06.435Z,-4.60
2019-01-29T22:53:09.180Z,-4.60
2019-01-29T22:56:11.986Z,-4.60
2019-01-29T22:59:14.670Z,-4.50
2019-01-29T23:02:17.351Z,-4.50
2019-01-29T23:05:20.102Z,-4.40
2019-01-29T23:08:22.806Z,-4.40
2019-01-29T23:11:25.387Z,-4.40
2019-01-29T23:14:28.043Z,-4.30
2019-01-29T23:17:30.741Z,-4.30
2019-01-29T23:20:33.543Z,-4.30
2019-01-29T23:23:36.141Z,-4.20
2019-01-29T23:26:38.812Z,-4.20
2019-01-29T23:29:43.626Z,-4.10
2019-01-29T23:32:47.048Z,-4.10
2019-01-29T23:35:49.614Z,-4.10
2019-01-29T23:38:52.320Z,-4.20
2019-01-29T23:41:54.942Z,-4.20
2019-01-29T23:44:57.709Z,-4.20
2019-01-29T23:48:00.370Z,-4.20
2019-01-29T23:51:03.394Z,-4.10
2019-01-29T23:54:05.981Z,-4.20
2019-01-29T23:57:08.653Z,-4.10
